Latest Coastal Weather Observations for Yamba

IDN60701

Issued at 2:31 pm EDT Sunday 20 October 2019 (issued every 10 minutes, with the page automatically refreshed every 10 minutes)

About coastal observations | Map of coastal stations | Coastal observations for NSW | Marine services | Other Formats
Station Details ID: 058012 Name: YAMBA PILOT STATION Lat: -29.43 Lon: 153.36 Height: 27.4 m
Data from the previous 72 hours. | See also: Recent months at Yamba
Date/Time
EDT
Wind Sea
Height
m
Swell Vis
km
Cloud Weather Temp
°C
Press
hPa
Rain since
9am
mm
Dir  Spd
kts
Gust
kts
Height
m
Period
s
Dir
20/02:30pm SSE 19 23 - - - - - - - 22.0 1019.5 0.0
20/02:00pm SSE 20 24 - - - - - - - 22.1 1019.7 0.0
20/01:30pm SSE 17 22 - - - - - - - 22.3 1019.8 0.0
20/01:00pm SSE 18 23 - - - - - - - 22.2 1019.8 0.0
20/12:30pm SSE 17 22 - - - - - - - 21.5 1019.9 0.0
20/12:00pm SSE 17 23 - - - - - - - 22.5 1020.0 0.0
20/11:30am SSE 17 23 - - - - - - - 22.2 1020.1 0.0
20/11:00am SSE 19 25 - - - - - - - 21.6 1020.2 0.0
20/10:30am SSE 15 24 - - - - - - - 21.8 1020.0 0.0
20/10:16am SSE 19 29 - - - - - - - 21.8 1019.8 0.0
20/10:00am SSE 20 28 - - - - - - - 21.6 1019.6 0.0
20/09:31am S 15 25 - - - - - - - 20.8 1019.2 0.0
20/09:30am S 14 25 - - - - - - - 20.9 1019.2 0.0
20/09:00am S 15 27 - - - - - - - 20.3 1018.7 0.0
20/08:30am S 17 27 - - - - - - - 20.4 1018.1 0.0
20/08:00am S 15 25 - - - - - - - 20.0 1017.6 0.0
20/07:49am S 15 25 - - - - - - - 19.9 1017.5 0.0
20/07:30am SSW 13 25 - - - - - - - 19.4 1017.3 0.0
20/07:00am SSW 14 23 - - - - - - - 19.0 1016.7 0.0
20/06:30am SSW 14 20 - - - - - - - 18.5 1016.2 0.0
20/06:00am SSW 13 25 - - - - - - - 18.5 1015.7 0.0
20/05:30am SSW 11 17 - - - - - - - 18.1 1015.2 0.0
20/05:00am SSW 8 12 - - - - - - - 17.9 1014.9 0.0
20/04:30am SW 7 13 - - - - - - - 18.3 1014.5 0.0
20/04:00am WSW 4 9 - - - - - - - 18.3 1014.0 0.0
20/03:30am WSW 4 5 - - - - - - - 18.8 1013.9 0.0
20/03:00am W 5 7 - - - - - - - 19.2 1014.0 0.0
20/02:30am WSW 4 5 - - - - - - - 19.7 1014.3 0.0
20/02:00am WSW 3 5 - - - - - - - 20.1 1014.4 0.0
20/01:30am SW 4 6 - - - - - - - 20.3 1014.6 0.0
20/01:00am S 4 5 - - - - - - - 20.2 1014.9 0.0
20/12:30am SSW 5 8 - - - - - - - 20.7 1015.3 0.0
20/12:00am SSE 5 6 - - - - - - - 20.8 1014.9 0.0
 
Date/Time
EDT
Wind Sea
Height
m
Swell Vis
km
Cloud Weather Temp
°C
Press
hPa
Rain since
9am
mm
Dir  Spd
kts
Gust
kts
Height
m
Period
s
Dir
19/11:30pm S 3 5 - - - - - - - 20.9 1015.1 0.0
19/11:00pm SE 4 5 - - - - - - - 20.7 1015.2 0.0
19/10:30pm ESE 4 6 - - - - - - - 20.6 1015.0 0.0
19/10:00pm E 5 6 - - - - - - - 20.7 1014.7 0.0
19/09:30pm E 5 9 - - - - - - - 21.1 1014.8 0.0
19/09:00pm E 6 8 - - - - - - - 21.2 1014.6 0.0
19/08:30pm E 7 11 - - - - - - - 21.2 1014.3 0.0
19/08:00pm ESE 7 9 - - - - - - - 21.2 1013.8 0.0
19/07:30pm E 6 9 - - - - - - - 21.1 1013.5 0.0
19/07:00pm NE 7 11 - - - - - - - 21.2 1013.2 0.0
19/06:30pm NE 7 11 - - - - - - - 21.6 1012.7 0.0
19/06:00pm NE 8 12 - - - - - - - 22.1 1012.6 0.0
19/05:30pm NE 8 12 - - - - - - - 23.0 1012.0 0.0
19/05:00pm NE 10 15 - - - - - - - 23.5 1011.3 0.0
19/04:30pm NE 9 15 - - - - - - - 23.4 1011.4 0.0
19/04:00pm NE 9 15 - - - - - - - 23.7 1011.7 0.0
19/03:30pm ENE 11 18 - - - - - - - 23.5 1012.2 0.0
19/03:00pm NE 9 14 - - - - - - - 24.1 1012.9 0.0
19/02:30pm NE 9 15 - - - - - - - 24.3 1013.5 0.0
19/02:00pm NE 8 14 - - - - - - - 24.3 1013.9 0.0
19/01:30pm ENE 9 15 - - - - - - - 24.5 1014.6 0.0
19/01:00pm NE 8 12 - - - - - - - 24.0 1015.2 0.0
19/12:30pm E 8 12 - - - - - - - 23.2 1015.7 0.0
19/12:00pm E 7 11 - - - - - - - 23.4 1016.3 0.0
19/11:30am E 7 10 - - - - - - - 23.0 1016.8 0.0
19/11:00am ENE 7 9 - - - - - - - 22.9 1017.3 0.0
19/10:30am ENE 6 8 - - - - - - - 22.1 1017.7 0.0
19/10:00am ESE 5 6 - - - - - - - 22.8 1017.9 0.0
19/09:30am NNW 6 8 - - - - - - - 23.2 1018.0 0.0
19/09:00am NNW 5 9 - - - - - - - 21.7 1018.2 0.0
19/08:30am WNW 5 7 - - - - - - - 20.5 1018.5 0.0
19/08:00am WNW 5 7 - - - - - - - 18.9 1018.5 0.0
19/07:30am W 5 7 - - - - - - - 17.3 1018.2 0.0
19/07:00am W 4 5 - - - - - - - 16.4 1018.0 0.0
19/06:30am W 5 7 - - - - - - - 16.2 1017.9 0.0
19/06:00am WNW 6 8 - - - - - - - 16.4 1017.6 0.0
19/05:30am W 5 6 - - - - - - - 15.8 1017.4 0.0
19/05:00am W 6 7 - - - - - - - 16.1 1017.1 0.0
19/04:30am W 6 7 - - - - - - - 15.8 1016.9 0.0
19/04:00am WSW 5 7 - - - - - - - 15.8 1017.0 0.0
19/03:30am WSW 5 7 - - - - - - - 16.0 1017.2 0.0
19/03:00am WSW 5 8 - - - - - - - 15.7 1017.2 0.0
19/02:30am WSW 5 7 - - - - - - - 16.0 1017.3 0.0
19/02:00am WSW 5 7 - - - - - - - 16.4 1017.4 0.0
19/01:30am WSW 5 7 - - - - - - - 16.6 1017.6 0.0
19/01:00am WNW 5 6 - - - - - - - 16.9 1017.8 0.0
19/12:30am WNW 5 6 - - - - - - - 16.6 1018.0 0.0
19/12:00am WNW 5 5 - - - - - - - 17.3 1018.2 0.0
 
Date/Time
EDT
Wind Sea
Height
m
Swell Vis
km
Cloud Weather Temp
°C
Press
hPa
Rain since
9am
mm
Dir  Spd
kts
Gust
kts
Height
m
Period
s
Dir
18/11:30pm WNW 4 5 - - - - - - - 18.1 1018.3 0.0
18/11:00pm ESE 4 5 - - - - - - - 19.2 1018.3 0.0
18/10:30pm SE 4 6 - - - - - - - 18.9 1018.3 0.0
18/10:00pm SE 4 6 - - - - - - - 18.9 1018.4 0.0
18/09:30pm SE 5 8 - - - - - - - 19.1 1018.4 0.0
18/09:00pm SE 6 7 - - - - - - - 19.2 1018.3 0.0
18/08:30pm SE 5 7 - - - - - - - 19.6 1018.1 0.0
18/08:00pm SE 5 6 - - - - - - - 19.5 1017.9 0.0
18/07:30pm ESE 6 8 - - - - - - - 19.8 1017.5 0.0
18/07:00pm ESE 6 8 - - - - - - - 20.0 1017.2 0.0
18/06:30pm ESE 6 8 - - - - - - - 20.3 1016.9 0.0
18/06:00pm ESE 7 11 - - - - - - - 20.8 1016.4 0.0
18/05:30pm ESE 7 11 - - - - - - - 21.3 1016.0 0.0
18/05:00pm ESE 8 11 - - - - - - - 21.6 1015.8 0.0
18/04:30pm ESE 9 14 - - - - - - - 21.8 1015.7 0.0
18/04:00pm ESE 8 13 - - - - - - - 22.6 1015.7 0.0
18/03:30pm ESE 9 13 - - - - - - - 22.6 1015.9 0.0
18/03:00pm ESE 8 11 - - - - - - - 22.9 1016.3 0.0
18/02:30pm ESE 8 12 - - - - - - - 23.0 1016.7 0.0
18/02:00pm ESE 9 14 - - - - - - - 22.7 1017.0 0.0
18/01:30pm ESE 10 13 - - - - - - - 22.9 1017.2 0.0
18/01:00pm SE 11 14 - - - - - - - 23.8 1017.4 0.0
18/12:30pm SE 12 15 - - - - - - - 23.6 1017.5 0.0
18/12:00pm SE 11 14 - - - - - - - 23.3 1017.7 0.0
18/11:30am SE 9 13 - - - - - - - 23.1 1017.8 0.0
18/11:00am NE 5 7 - - - - - - - 24.3 1017.5 0.0
18/10:30am NNE 4 5 - - - - - - - 24.8 1017.6 0.0
18/10:00am NW 4 5 - - - - - - - 24.1 1017.7 0.0
18/09:30am NNW 4 7 - - - - - - - 24.0 1017.5 0.0
18/09:00am NW 4 6 - - - - - - - 22.6 1017.3 0.0
18/08:30am W 4 5 - - - - - - - 21.5 1017.3 0.0
18/08:00am WSW 4 5 - - - - - - - 20.4 1016.9 0.0
18/07:30am WSW 4 5 - - - - - - - 19.5 1016.6 0.0
18/07:00am SW 5 6 - - - - - - - 18.7 1016.2 0.0
18/06:30am SSW 6 8 - - - - - - - 17.9 1015.6 0.0
18/06:00am SSW 7 8 - - - - - - - 17.8 1015.3 0.0
18/05:30am SSW 6 8 - - - - - - - 18.0 1014.9 0.0
18/05:00am SSW 5 7 - - - - - - - 18.2 1014.7 0.0
18/04:30am S 6 8 - - - - - - - 18.9 1014.4 0.0
18/04:00am S 7 10 - - - - - - - 19.2 1014.1 0.0
18/03:30am S 7 9 - - - - - - - 19.6 1014.0 0.0
18/03:00am S 9 14 - - - - - - - 19.8 1013.7 0.0
18/02:30am S 9 13 - - - - - - - 20.3 1013.8 0.0
18/02:00am S 9 13 - - - - - - - 20.8 1013.8 0.0
18/01:30am SSW 9 13 - - - - - - - 20.9 1013.3 0.0
18/01:00am NW 5 7 - - - - - - - 20.3 1012.9 0.0
18/12:30am W 5 6 - - - - - - - 21.1 1012.4 0.0
18/12:00am WNW 7 9 - - - - - - - 21.5 1012.2 0.0
 
Date/Time
EDT
Wind Sea
Height
m
Swell Vis
km
Cloud Weather Temp
°C
Press
hPa
Rain since
9am
mm
Dir  Spd
kts
Gust
kts
Height
m
Period
s
Dir
17/11:30pm W 7 9 - - - - - - - 22.0 1011.9 0.0
17/11:00pm WNW 8 11 - - - - - - - 22.3 1011.5 0.0
17/10:30pm NW 7 10 - - - - - - - 22.0 1010.7 0.0
17/10:00pm NNW 7 11 - - - - - - - 22.4 1010.4 0.0
17/09:30pm NNW 11 16 - - - - - - - 23.2 1009.8 0.0
17/09:00pm NNW 8 14 - - - - - - - 22.9 1009.4 0.0
17/08:30pm N 9 15 - - - - - - - 23.3 1009.2 0.0
17/08:00pm NNW 11 20 - - - - - - - 24.0 1008.5 0.0
17/07:30pm NNW 11 17 - - - - - - - 23.3 1007.8 0.0
17/07:00pm N 7 11 - - - - - - - 22.1 1007.0 0.0
17/06:30pm N 6 11 - - - - - - - 21.9 1006.3 0.0
17/06:00pm NNE 9 15 - - - - - - - 23.2 1005.9 0.0
17/05:30pm N 7 12 - - - - - - - 25.1 1005.2 0.0
17/05:00pm NNE 5 9 - - - - - - - 24.7 1005.5 0.0
17/04:30pm NNW 10 22 - - - - - - - 24.7 1004.4 0.0
17/04:20pm NNW 8 14 - - - - - - - 22.5 1005.4 0.0
17/04:00pm NNE 9 16 - - - - - - - 22.5 1003.4 0.0
17/03:30pm NNE 9 16 - - - - - - - 24.0 1004.0 0.0
17/03:00pm NNE 10 20 - - - - - - - 25.9 1004.4 0.0

Other formats

Comma delimited format used in spreadsheet applications
http://www.bom.gov.au/fwo/IDN60701/IDN60701.94589.axf

JavaScript Object Notation format (JSON) in row-major order
http://www.bom.gov.au/fwo/IDN60701/IDN60701.94589.json

Data quality

Most of these data are generated automatically and are frequently updated. Quality checks on data are not normally performed. It is possible for incorrect values to appear. Refer to information at About Latest Weather Observations and please check the disclaimer before using these data.